首页
METAR-TAF:

METAR-TAF

机场 :

明尼阿波利斯-圣保罗国际机场

明尼阿波利斯, 明尼蘇達州, 美国

纬度: 44-52-59N, 经度: 093-13-44W, 海拔: 256米

当前天气观测

该预报发布于1小时和7分钟前的13:53 UTC
风速6节,风向西转西南
温度 -1°C
湿度 69%
气压 1010 hPa
能見度: 16.1公里
天空无云

METAR: KMSP 231353Z 25006KT 10SM CLR M01/M06 A2983 RMK AO2 SLP110 T10111061

时间: 09:00 (15:00 UTC)

预报

该预报发布于3小时和21分钟前的11:39 UTC
预报有效从23日的 12点(UTC)到 24日的 18点(UTC)
风速4节,风向西转西南
能見度: 10公里
少量云层高于25000英尺
从 23日的 1800点(UTC)
风速12节,风向西,有时为18节阵风
能見度: 10公里
少量云层高于2000英尺
从 23日的 2300点(UTC)
风速8节,风向西转西北
能見度: 10公里
散云层高于25000英尺
从 24日的 0800点(UTC)
风速3节,风向北转西北
能見度: 10公里
少量云层高于25000英尺

TAF: KMSP 231139Z 2312/2418 24004KT P6SM FEW250 FM231800 28012G18KT P6SM FEW020 FM232300 29008KT P6SM SCT250 FM240800 34003KT P6SM FEW250

超过4000个机场的气象观测和天气预报(METAR&TAF报告)。

可查询的气象台以黄色和红色小点在地图上表示。

将鼠标移到小点上方,可查看气象台名称。

然后点击查看天气观测和预报。

如需切换地图:点击带黑十字的绿色按钮放大地图;点击带横线的绿色按钮缩小地图;或者点击绿色箭头查看邻近地区的地图。


METAR-TAF: